createdAt,value
2022-08-16T00:01:41.076Z,21.30
2022-08-16T00:04:09.634Z,21.28
2022-08-16T00:06:39.440Z,21.24
2022-08-16T00:09:07.372Z,21.21
2022-08-16T00:11:37.560Z,21.16
2022-08-16T00:14:10.126Z,21.10
2022-08-16T00:17:06.039Z,21.07
2022-08-16T00:19:28.382Z,21.04
2022-08-16T00:22:13.790Z,21.03
2022-08-16T00:24:44.854Z,20.97
2022-08-16T00:27:13.175Z,20.92
2022-08-16T00:29:39.768Z,20.89
2022-08-16T00:32:08.052Z,20.87
2022-08-16T00:34:44.637Z,20.84
2022-08-16T00:37:24.542Z,20.80
2022-08-16T00:39:56.866Z,20.76
2022-08-16T00:42:30.762Z,20.72
2022-08-16T00:45:13.577Z,20.72
2022-08-16T00:47:49.534Z,20.70
2022-08-16T00:50:20.969Z,20.68
2022-08-16T00:52:50.838Z,20.67
2022-08-16T00:55:20.279Z,20.64
2022-08-16T00:58:00.134Z,20.61
2022-08-16T01:00:30.417Z,20.57
2022-08-16T01:02:59.754Z,20.55
2022-08-16T01:05:27.403Z,20.52
2022-08-16T01:07:55.043Z,20.51
2022-08-16T01:10:32.653Z,20.50
2022-08-16T01:13:18.610Z,20.47
2022-08-16T01:15:53.901Z,20.40
2022-08-16T01:18:40.720Z,20.35
2022-08-16T01:21:22.100Z,20.31
2022-08-16T01:24:02.387Z,20.30
2022-08-16T01:26:32.021Z,20.28
2022-08-16T01:29:06.611Z,20.28
2022-08-16T01:31:37.599Z,20.25
2022-08-16T01:34:25.262Z,20.22
2022-08-16T01:37:01.383Z,20.21
2022-08-16T01:39:29.536Z,20.17
2022-08-16T01:41:58.314Z,20.11
2022-08-16T01:44:25.595Z,20.09
2022-08-16T01:47:05.542Z,20.08
2022-08-16T01:50:41.175Z,20.03
2022-08-16T01:52:29.603Z,20.00
2022-08-16T01:54:58.182Z,19.99
2022-08-16T01:57:26.843Z,19.94
2022-08-16T01:59:54.622Z,19.89
2022-08-16T02:02:28.669Z,19.84
2022-08-16T02:04:57.438Z,19.82
2022-08-16T02:07:24.803Z,19.81
2022-08-16T02:09:57.080Z,19.79
2022-08-16T02:12:50.763Z,19.76
2022-08-16T02:15:13.127Z,19.73
2022-08-16T02:17:39.721Z,19.73
2022-08-16T02:20:11.660Z,19.72
2022-08-16T02:22:41.388Z,19.69
2022-08-16T02:25:12.063Z,19.65
2022-08-16T02:27:43.374Z,19.64
2022-08-16T02:30:35.856Z,19.63
2022-08-16T02:33:04.912Z,19.60
2022-08-16T02:35:33.324Z,19.57
2022-08-16T02:38:08.446Z,19.58
2022-08-16T02:40:35.776Z,19.56
2022-08-16T02:43:02.713Z,19.52
2022-08-16T02:45:29.462Z,19.49
2022-08-16T02:48:01.827Z,19.46
2022-08-16T02:50:53.584Z,19.47
2022-08-16T02:53:30.330Z,19.47
2022-08-16T02:55:56.800Z,19.43
2022-08-16T02:58:25.125Z,19.39
2022-08-16T03:00:53.298Z,19.36
2022-08-16T03:03:23.126Z,19.32
2022-08-16T03:05:52.518Z,19.29
2022-08-16T03:08:50.652Z,19.29
2022-08-16T03:11:16.585Z,19.25
2022-08-16T03:13:47.735Z,19.24
2022-08-16T03:16:37.635Z,19.22
2022-08-16T03:19:05.445Z,19.22
2022-08-16T03:21:37.459Z,19.21
2022-08-16T03:24:04.302Z,19.22
2022-08-16T03:26:30.767Z,19.21
2022-08-16T03:28:58.517Z,19.19
2022-08-16T03:31:26.093Z,19.16
2022-08-16T03:34:01.419Z,19.15
2022-08-16T03:36:30.597Z,19.15
2022-08-16T03:38:59.481Z,19.14
2022-08-16T03:41:29.464Z,19.11
2022-08-16T03:44:13.573Z,19.09
2022-08-16T03:47:01.069Z,19.07
2022-08-16T03:49:35.808Z,19.06
2022-08-16T03:52:03.991Z,19.06
2022-08-16T03:54:30.514Z,19.04
2022-08-16T03:56:58.588Z,19.02
2022-08-16T03:59:29.333Z,19.00
2022-08-16T04:01:56.651Z,19.02
2022-08-16T04:04:30.974Z,19.03
2022-08-16T04:06:59.421Z,19.03
2022-08-16T04:09:25.873Z,19.00
2022-08-16T04:11:52.971Z,19.00
2022-08-16T04:14:32.915Z,19.00
2022-08-16T04:17:01.698Z,18.99
2022-08-16T04:19:31.745Z,18.97
2022-08-16T04:21:58.505Z,18.92
2022-08-16T04:24:28.655Z,18.93
2022-08-16T04:26:55.610Z,18.92
2022-08-16T04:29:24.947Z,18.88
2022-08-16T04:31:56.220Z,18.83
2022-08-16T04:34:27.679Z,18.83
2022-08-16T04:36:56.668Z,18.82
2022-08-16T04:39:24.290Z,18.80
2022-08-16T04:41:56.869Z,18.79
2022-08-16T04:44:52.849Z,18.78
2022-08-16T04:47:21.706Z,18.79
2022-08-16T04:49:50.573Z,18.76
2022-08-16T04:52:33.936Z,18.76
2022-08-16T04:55:13.485Z,18.76
2022-08-16T04:57:45.767Z,18.73
2022-08-16T05:00:31.136Z,18.73
2022-08-16T05:03:07.518Z,18.74
2022-08-16T05:05:45.166Z,18.76
2022-08-16T05:08:29.044Z,18.79
2022-08-16T05:10:59.978Z,18.80
2022-08-16T05:13:41.636Z,18.81
2022-08-16T05:16:19.958Z,18.84
2022-08-16T05:18:49.559Z,18.86
2022-08-16T05:21:16.047Z,18.86
2022-08-16T05:23:51.441Z,18.87
2022-08-16T05:26:23.057Z,18.94
2022-08-16T05:28:55.181Z,18.97
2022-08-16T05:31:23.538Z,19.02
2022-08-16T05:33:53.623Z,19.07
2022-08-16T05:36:21.646Z,19.12
2022-08-16T05:38:48.893Z,19.15
2022-08-16T05:41:16.965Z,19.19
2022-08-16T05:43:46.858Z,19.22
2022-08-16T05:46:29.715Z,19.25
2022-08-16T05:49:03.137Z,19.28
2022-08-16T05:51:37.669Z,19.31
2022-08-16T05:54:11.617Z,19.33
2022-08-16T05:56:43.140Z,19.34
2022-08-16T05:59:09.887Z,19.36
2022-08-16T06:01:38.311Z,19.37
2022-08-16T06:04:12.664Z,19.39
2022-08-16T06:06:41.220Z,19.42
2022-08-16T06:09:11.697Z,19.50
2022-08-16T06:27:17.885Z,20.01
2022-08-16T06:29:49.871Z,20.11
2022-08-16T06:38:35.795Z,20.37
2022-08-16T08:36:54.201Z,22.77
2022-08-16T08:39:22.684Z,22.80
2022-08-16T08:41:50.401Z,22.83
2022-08-16T08:44:28.897Z,22.88
2022-08-16T08:46:59.748Z,22.92
2022-08-16T08:49:50.728Z,22.96
2022-08-16T08:52:33.652Z,22.99
2022-08-16T08:55:10.780Z,23.06
2022-08-16T08:57:41.719Z,23.09
2022-08-16T09:00:13.836Z,23.11
2022-08-16T09:02:44.552Z,23.13
2022-08-16T09:05:44.143Z,23.18
2022-08-16T09:08:09.524Z,23.20
2022-08-16T09:10:39.501Z,23.23
2022-08-16T09:13:08.051Z,23.30
2022-08-16T09:15:37.315Z,23.32
2022-08-16T09:18:26.548Z,23.34
2022-08-16T09:20:59.026Z,23.37
2022-08-16T09:26:45.464Z,23.40
2022-08-16T09:29:14.401Z,23.45
2022-08-16T09:31:43.020Z,23.48
2022-08-16T09:34:10.573Z,23.54
2022-08-16T09:36:45.209Z,23.64
2022-08-16T09:39:16.131Z,23.74
2022-08-16T09:41:53.247Z,23.74
2022-08-16T09:45:10.884Z,23.77
2022-08-16T09:47:10.379Z,23.79
2022-08-16T09:49:37.571Z,23.83
2022-08-16T09:52:09.566Z,23.85
2022-08-16T09:57:37.512Z,23.97
2022-08-16T10:00:42.359Z,24.00
2022-08-16T10:09:08.250Z,24.11
2022-08-16T10:14:16.676Z,24.22
2022-08-16T10:16:48.792Z,24.30
2022-08-16T10:19:19.377Z,24.37
2022-08-16T10:21:46.465Z,24.48
2022-08-16T10:24:28.463Z,24.59
2022-08-16T10:27:25.229Z,24.64
2022-08-16T10:30:00.185Z,24.67
2022-08-16T10:32:33.801Z,24.73
2022-08-16T10:35:03.390Z,24.76
2022-08-16T10:37:35.706Z,24.83
2022-08-16T10:40:28.198Z,24.92
2022-08-16T10:43:00.799Z,24.93
2022-08-16T10:45:36.509Z,24.97
2022-08-16T10:48:27.319Z,25.04
2022-08-16T11:37:19.400Z,25.72
2022-08-16T11:40:08.324Z,25.81
2022-08-16T11:43:07.667Z,25.86
2022-08-16T12:43:36.223Z,26.53
2022-08-16T12:56:02.583Z,26.39
2022-08-16T13:14:32.087Z,26.48
2022-08-16T13:17:06.824Z,26.54
2022-08-16T13:23:23.636Z,26.59
2022-08-16T13:25:51.132Z,26.61
2022-08-16T13:28:29.659Z,26.66
2022-08-16T13:30:59.290Z,26.73
2022-08-16T13:34:20.293Z,26.73
2022-08-16T13:37:18.768Z,26.77
2022-08-16T15:24:29.967Z,26.83
2022-08-16T15:38:02.202Z,26.96
2022-08-16T15:44:54.742Z,26.88
2022-08-16T17:15:50.132Z,26.61
2022-08-16T17:29:13.953Z,26.46
2022-08-16T17:31:43.449Z,26.45
2022-08-16T17:34:31.007Z,26.39
2022-08-16T17:37:00.759Z,26.33
2022-08-16T17:39:57.289Z,26.33
2022-08-16T17:42:22.481Z,26.28
2022-08-16T17:44:52.289Z,26.24
2022-08-16T17:47:19.077Z,26.22
2022-08-16T17:49:45.686Z,26.17
2022-08-16T17:52:12.942Z,26.13
2022-08-16T17:54:40.847Z,26.09
2022-08-16T17:57:07.437Z,26.08
2022-08-16T17:59:38.329Z,26.05
2022-08-16T18:02:42.381Z,26.01
2022-08-16T18:04:55.671Z,25.96
2022-08-16T18:07:22.948Z,25.92
2022-08-16T18:09:50.076Z,25.92
2022-08-16T18:12:54.238Z,25.92
2022-08-16T18:15:12.563Z,25.90
2022-08-16T18:17:39.690Z,25.88
2022-08-16T18:20:28.093Z,25.86
2022-08-16T18:22:55.122Z,25.88
2022-08-16T18:25:23.868Z,25.83
2022-08-16T18:27:50.405Z,25.80
2022-08-16T18:30:17.656Z,25.74
2022-08-16T18:32:49.747Z,25.71
2022-08-16T18:35:18.456Z,25.64
2022-08-16T18:37:48.828Z,25.51
2022-08-16T18:40:16.836Z,25.41
2022-08-16T18:43:00.121Z,25.34
2022-08-16T18:45:35.460Z,25.29
2022-08-16T18:48:06.267Z,25.24
2022-08-16T18:50:59.992Z,25.16
2022-08-16T18:53:24.268Z,25.13
2022-08-16T18:55:54.687Z,25.08
2022-08-16T18:58:21.606Z,25.07
2022-08-16T19:00:56.653Z,25.08
2022-08-16T19:03:29.029Z,25.01
2022-08-16T19:06:02.321Z,24.99
2022-08-16T19:08:29.838Z,24.92
2022-08-16T19:10:56.368Z,24.85
2022-08-16T19:13:26.340Z,24.83
2022-08-16T19:15:55.252Z,24.80
2022-08-16T19:18:22.487Z,24.74
2022-08-16T19:20:50.310Z,24.72
2022-08-16T19:23:19.698Z,24.67
2022-08-16T19:25:52.828Z,24.63
2022-08-16T19:28:49.226Z,24.63
2022-08-16T19:31:15.956Z,24.58
2022-08-16T19:33:53.820Z,24.55
2022-08-16T19:36:31.753Z,24.53
2022-08-16T19:39:04.904Z,24.53
2022-08-16T19:41:33.430Z,24.48
2022-08-16T19:44:00.943Z,24.43
2022-08-16T19:46:27.562Z,24.40
2022-08-16T19:48:54.245Z,24.38
2022-08-16T19:51:20.770Z,24.34
2022-08-16T19:53:47.315Z,24.32
2022-08-16T19:56:13.839Z,24.31
2022-08-16T19:58:56.096Z,24.26
2022-08-16T20:01:26.916Z,24.22
2022-08-16T20:03:53.475Z,24.16
2022-08-16T20:06:32.365Z,24.10
2022-08-16T20:09:05.874Z,24.06
2022-08-16T20:11:34.153Z,24.02
2022-08-16T20:14:00.710Z,23.98
2022-08-16T20:16:28.568Z,23.93
2022-08-16T20:18:55.103Z,23.90
2022-08-16T20:21:21.718Z,23.85
2022-08-16T20:23:49.577Z,23.79
2022-08-16T20:26:16.274Z,23.75
2022-08-16T20:28:52.483Z,23.70
2022-08-16T20:31:22.154Z,23.68
2022-08-16T20:33:49.780Z,23.70
2022-08-16T20:36:16.869Z,23.68
2022-08-16T20:38:46.810Z,23.66
2022-08-16T20:41:13.684Z,23.63
2022-08-16T20:43:41.404Z,23.62
2022-08-16T20:46:08.245Z,23.57
2022-08-16T20:48:34.784Z,23.52
2022-08-16T20:51:01.581Z,23.49
2022-08-16T20:53:28.068Z,23.48
2022-08-16T20:55:54.642Z,23.45
2022-08-16T20:58:21.160Z,23.44
2022-08-16T21:00:47.972Z,23.44
2022-08-16T21:03:14.809Z,23.47
2022-08-16T21:05:41.478Z,23.51
2022-08-16T21:08:46.524Z,23.52
2022-08-16T21:10:56.502Z,23.52
2022-08-16T21:13:25.577Z,23.50
2022-08-16T21:15:52.609Z,23.46
2022-08-16T21:18:19.239Z,23.41
2022-08-16T21:20:45.769Z,23.40
2022-08-16T21:23:12.262Z,23.35
2022-08-16T21:25:44.834Z,23.33
2022-08-16T21:28:41.348Z,23.29
2022-08-16T21:31:12.136Z,23.28
2022-08-16T21:33:39.071Z,23.28
2022-08-16T21:36:06.007Z,23.23
2022-08-16T21:38:32.657Z,23.13
2022-08-16T21:41:00.445Z,23.05
2022-08-16T21:43:31.683Z,23.01
2022-08-16T21:45:59.665Z,22.99
2022-08-16T21:48:33.517Z,22.95
2022-08-16T21:51:01.373Z,22.95
2022-08-16T21:53:28.399Z,22.89
2022-08-16T21:55:57.207Z,22.84
2022-08-16T21:58:25.307Z,22.81
2022-08-16T22:00:52.273Z,22.78
2022-08-16T22:03:19.066Z,22.75
2022-08-16T22:06:13.365Z,22.76
2022-08-16T22:08:34.187Z,22.78
2022-08-16T22:11:05.915Z,22.80
2022-08-16T22:13:34.726Z,22.79
2022-08-16T22:16:03.990Z,22.75
2022-08-16T22:18:30.538Z,22.70
2022-08-16T22:20:57.200Z,22.64
2022-08-16T22:23:25.621Z,22.61
2022-08-16T22:25:53.976Z,22.62
2022-08-16T22:28:22.420Z,22.62
2022-08-16T22:30:49.859Z,22.64
2022-08-16T22:33:20.708Z,22.63
2022-08-16T22:35:53.545Z,22.61
2022-08-16T22:38:53.701Z,22.52
2022-08-16T22:41:06.934Z,22.48
2022-08-16T22:43:33.527Z,22.45
2022-08-16T22:46:00.568Z,22.40
2022-08-16T22:48:27.242Z,22.37
2022-08-16T22:50:53.780Z,22.40
2022-08-16T22:53:20.614Z,22.42
2022-08-16T22:55:47.207Z,22.39
2022-08-16T22:58:13.948Z,22.32
2022-08-16T23:00:41.045Z,22.26
2022-08-16T23:03:11.403Z,22.23
2022-08-16T23:05:43.546Z,22.21
2022-08-16T23:08:14.888Z,22.21
2022-08-16T23:10:59.306Z,22.23
2022-08-16T23:13:26.812Z,22.25
2022-08-16T23:15:57.209Z,22.27
2022-08-16T23:18:27.056Z,22.26
2022-08-16T23:20:55.838Z,22.26
2022-08-16T23:23:25.652Z,22.23
2022-08-16T23:25:55.311Z,22.17
2022-08-16T23:28:25.488Z,22.10
2022-08-16T23:30:52.979Z,22.05
2022-08-16T23:33:21.041Z,22.00
2022-08-16T23:35:50.790Z,21.98
2022-08-16T23:38:37.922Z,21.92
2022-08-16T23:41:09.314Z,21.88
2022-08-16T23:43:41.849Z,21.87
2022-08-16T23:46:11.707Z,21.84
2022-08-16T23:49:45.088Z,21.83
2022-08-16T23:51:24.709Z,21.82
2022-08-16T23:53:51.280Z,21.76
2022-08-16T23:56:20.276Z,21.74
2022-08-16T23:58:54.336Z,21.73
